Time;durP1;ratioP1;P1;durP2;ratioP2;P2;SDS_P1;SDS_P2;PMS_P1;PMS_P2;Temp;Humidity;BMP_temperature;BMP_pressure;BME280_temperature;BME280_humidity;BME280_pressure;Samples;Min_cycle;Max_cycle;Signal;HPM_P1;HPM_P2
2022/03/13 00:00:06;;;;;;;21.33;9.70;;;27.90;89.30;;;;;;5124568;28;20261;-44
2022/03/13 00:02:34;;;;;;;18.48;9.05;;;27.90;89.30;;;;;;5124563;28;20215;-44
2022/03/13 00:05:01;;;;;;;21.00;9.20;;;27.90;89.30;;;;;;5124348;28;20363;-45
2022/03/13 00:07:29;;;;;;;20.35;9.23;;;27.90;89.40;;;;;;5124073;28;20124;-45
2022/03/13 00:09:55;;;;;;;18.77;9.10;;;27.90;89.50;;;;;;5124345;28;20215;-46
2022/03/13 00:12:30;;;;;;;13.70;9.80;;;27.90;89.50;;;;;;5124823;28;20035;-44
2022/03/13 00:15:01;;;;;;;16.70;9.65;;;27.90;89.60;;;;;;5124372;28;20016;-45
2022/03/13 00:17:30;;;;;;;15.63;10.90;;;27.80;89.80;;;;;;5124290;28;20060;-44
2022/03/13 00:20:00;;;;;;;16.92;11.75;;;27.90;89.80;;;;;;5124082;28;20047;-45
2022/03/13 00:22:35;;;;;;;22.17;12.10;;;27.90;90.00;;;;;;5124347;28;20027;-46
2022/03/13 00:25:08;;;;;;;17.05;12.75;;;27.90;90.00;;;;;;5123306;28;20087;-43
2022/03/13 00:27:35;;;;;;;18.20;12.77;;;27.90;90.00;;;;;;5124417;28;20061;-45
2022/03/13 00:30:06;;;;;;;15.05;11.25;;;27.90;90.00;;;;;;5127690;28;20011;-46
2022/03/13 00:32:32;;;;;;;17.13;11.07;;;27.80;90.00;;;;;;5128292;28;20028;-45
2022/03/13 00:34:59;;;;;;;14.65;9.88;;;27.80;89.90;;;;;;5128228;28;20087;-45
2022/03/13 00:37:27;;;;;;;15.18;9.75;;;27.80;89.80;;;;;;5128385;28;20042;-46
2022/03/13 00:39:55;;;;;;;15.60;9.82;;;27.80;89.70;;;;;;5128171;28;20099;-46
2022/03/13 00:42:21;;;;;;;11.75;8.90;;;27.80;89.60;;;;;;5129489;28;20062;-45
2022/03/13 00:44:49;;;;;;;11.77;8.35;;;27.80;89.50;;;;;;5128095;28;20108;-43
2022/03/13 00:47:18;;;;;;;11.90;8.93;;;27.80;89.40;;;;;;5128658;28;20112;-44
2022/03/13 00:49:49;;;;;;;11.35;7.82;;;27.80;89.30;;;;;;5128092;28;20073;-45
2022/03/13 00:52:17;;;;;;;12.77;8.25;;;27.80;89.20;;;;;;5128448;28;20024;-45
2022/03/13 00:54:44;;;;;;;11.52;7.72;;;27.80;89.10;;;;;;5127744;28;20035;-44
2022/03/13 00:57:10;;;;;;;11.10;7.43;;;27.80;89.10;;;;;;5128473;28;20086;-44
2022/03/13 00:59:37;;;;;;;16.08;8.20;;;27.80;89.10;;;;;;5127980;28;20364;-46
2022/03/13 01:02:05;;;;;;;10.02;7.10;;;27.80;89.10;;;;;;5127565;28;20334;-45
2022/03/13 01:04:32;;;;;;;11.20;8.00;;;27.80;89.10;;;;;;5128103;28;20031;-45
2022/03/13 01:06:58;;;;;;;11.95;7.68;;;27.80;89.10;;;;;;5128181;28;20070;-45
2022/03/13 01:09:25;;;;;;;11.77;7.35;;;27.80;89.10;;;;;;5127542;28;20015;-45
2022/03/13 01:11:52;;;;;;;13.80;7.78;;;27.80;89.00;;;;;;5127915;28;20024;-47
2022/03/13 01:14:21;;;;;;;9.90;6.88;;;27.80;89.00;;;;;;5128016;28;20094;-46
2022/03/13 01:16:48;;;;;;;13.57;7.50;;;27.80;89.10;;;;;;5127955;28;20023;-47
2022/03/13 01:19:15;;;;;;;14.45;6.47;;;27.80;89.00;;;;;;5127336;28;20039;-46
2022/03/13 01:21:42;;;;;;;10.05;7.18;;;27.80;89.00;;;;;;5127854;28;20383;-46
2022/03/13 01:24:15;;;;;;;11.05;7.10;;;27.80;89.00;;;;;;5127341;28;20064;-45
2022/03/13 01:26:42;;;;;;;9.65;6.85;;;27.80;89.00;;;;;;5127581;27;20042;-45
2022/03/13 01:29:11;;;;;;;13.95;7.20;;;27.80;89.00;;;;;;5127547;28;20318;-46
2022/03/13 01:31:47;;;;;;;10.90;6.68;;;27.80;88.90;;;;;;5127563;28;20049;-46
2022/03/13 01:34:32;;;;;;;9.73;6.72;;;27.80;88.90;;;;;;5127331;28;20055;-46
2022/03/13 01:36:59;;;;;;;8.43;6.30;;;27.80;88.80;;;;;;5127961;28;20391;-45
2022/03/13 01:39:25;;;;;;;12.98;6.75;;;27.80;88.80;;;;;;5127134;27;20027;-45
2022/03/13 01:41:53;;;;;;;11.10;6.32;;;27.80;88.80;;;;;;5127486;28;20274;-45
2022/03/13 01:44:20;;;;;;;9.23;6.72;;;27.80;88.80;;;;;;5126963;28;20019;-45
2022/03/13 01:46:48;;;;;;;9.05;7.03;;;27.80;88.90;;;;;;5126956;28;20107;-45
2022/03/13 01:49:15;;;;;;;9.00;6.65;;;27.80;88.90;;;;;;5126897;28;20023;-46
2022/03/13 01:51:42;;;;;;;11.57;6.70;;;27.80;88.90;;;;;;5127223;28;20036;-44
2022/03/13 01:54:11;;;;;;;7.82;6.20;;;27.70;88.80;;;;;;5127020;28;20007;-45
2022/03/13 01:56:38;;;;;;;11.40;6.40;;;27.70;88.80;;;;;;5127627;28;20057;-46
2022/03/13 01:59:07;;;;;;;11.50;6.88;;;27.70;88.90;;;;;;5127057;28;20019;-47
2022/03/13 02:01:34;;;;;;;11.77;6.60;;;27.70;88.90;;;;;;5127410;28;20019;-45
2022/03/13 02:04:01;;;;;;;8.80;6.40;;;27.70;89.00;;;;;;5126501;28;20057;-46
2022/03/13 02:06:28;;;;;;;9.50;7.18;;;27.70;89.10;;;;;;5126921;27;20035;-45
2022/03/13 02:08:56;;;;;;;9.30;6.28;;;27.70;89.10;;;;;;5126705;28;20011;-45
2022/03/13 02:11:26;;;;;;;9.23;6.05;;;27.70;89.10;;;;;;5126367;28;20082;-45
2022/03/13 02:13:55;;;;;;;12.48;6.70;;;27.70;89.10;;;;;;5126467;28;20018;-46
2022/03/13 02:16:22;;;;;;;9.52;6.22;;;27.70;89.20;;;;;;5127199;28;20031;-46
2022/03/13 02:18:56;;;;;;;11.82;6.43;;;27.70;89.20;;;;;;5126539;28;20031;-46
2022/03/13 02:21:31;;;;;;;9.43;6.57;;;27.70;89.20;;;;;;5126864;28;20069;-45
2022/03/13 02:24:07;;;;;;;13.15;9.60;;;27.70;89.20;;;;;;5125521;28;20019;-45
2022/03/13 02:26:35;;;;;;;10.73;9.63;;;27.60;89.20;;;;;;5126314;28;20032;-45
2022/03/13 02:29:10;;;;;;;13.75;12.43;;;27.60;89.30;;;;;;5126345;28;20298;-45
2022/03/13 02:31:39;;;;;;;14.77;11.32;;;27.60;89.80;;;;;;5126403;28;20086;-44
2022/03/13 02:34:12;;;;;;;9.27;8.32;;;27.60;89.40;;;;;;5124868;28;20015;-45
2022/03/13 02:36:38;;;;;;;10.00;7.72;;;27.60;89.50;;;;;;5126479;28;20034;-46
2022/03/13 02:39:07;;;;;;;11.75;7.65;;;27.60;89.50;;;;;;5126269;28;20326;-45
2022/03/13 02:41:34;;;;;;;12.98;6.95;;;27.60;89.50;;;;;;5125030;28;20299;-44
2022/03/13 02:44:11;;;;;;;9.63;6.90;;;27.60;89.40;;;;;;5126390;27;20189;-46
2022/03/13 02:47:00;;;;;;;9.55;7.10;;;27.60;89.30;;;;;;5126517;28;20095;-44
2022/03/13 02:49:28;;;;;;;9.50;6.40;;;27.60;89.30;;;;;;5126420;28;20038;-46
2022/03/13 02:51:58;;;;;;;10.27;7.00;;;27.50;89.30;;;;;;5124244;28;20034;-46
2022/03/13 02:54:26;;;;;;;14.60;6.80;;;27.60;89.40;;;;;;5125949;28;20022;-46
2022/03/13 02:56:53;;;;;;;14.05;7.05;;;27.50;89.20;;;;;;5125696;28;20031;-44
2022/03/13 02:59:23;;;;;;;8.75;7.15;;;27.50;89.20;;;;;;5126018;28;20395;-49
2022/03/13 03:01:50;;;;;;;9.20;6.47;;;27.50;89.10;;;;;;5107886;28;20031;-45
2022/03/13 03:04:17;;;;;;;10.00;7.03;;;27.50;88.90;;;;;;5125892;28;20019;-46
2022/03/13 03:07:02;;;;;;;9.88;5.95;;;27.50;88.80;;;;;;5126075;28;20034;-37
2022/03/13 03:09:31;;;;;;;10.10;6.47;;;27.50;88.70;;;;;;5125495;28;20358;-39
2022/03/13 03:12:04;;;;;;;6.13;5.43;;;27.50;88.50;;;;;;5125590;28;20035;-37
2022/03/13 03:14:32;;;;;;;9.20;5.72;;;27.50;88.30;;;;;;5125931;28;20257;-39
2022/03/13 03:16:59;;;;;;;9.23;5.50;;;27.50;88.20;;;;;;5126012;27;20051;-37
2022/03/13 03:19:26;;;;;;;10.75;5.68;;;27.50;88.00;;;;;;5125194;28;20044;-37
2022/03/13 03:21:54;;;;;;;11.23;6.03;;;27.50;87.90;;;;;;5126153;28;20031;-40
2022/03/13 03:24:25;;;;;;;7.82;5.47;;;27.50;87.60;;;;;;5124186;28;20111;-41
2022/03/13 03:26:56;;;;;;;10.00;6.00;;;27.50;87.80;;;;;;5125574;28;20322;-40
2022/03/13 03:29:25;;;;;;;6.03;4.95;;;27.50;87.80;;;;;;5125085;28;20030;-49
2022/03/13 03:31:52;;;;;;;6.03;5.00;;;27.50;87.40;;;;;;5125960;28;20055;-43
2022/03/13 03:34:21;;;;;;;11.45;5.30;;;27.40;87.20;;;;;;5124867;28;20042;-39
2022/03/13 03:36:51;;;;;;;11.85;4.85;;;27.40;87.10;;;;;;5125197;28;20027;-39
2022/03/13 03:39:20;;;;;;;9.13;4.78;;;27.50;86.90;;;;;;5124944;28;20035;-37
2022/03/13 03:41:48;;;;;;;12.68;4.78;;;27.40;86.50;;;;;;5124775;28;20027;-38
2022/03/13 03:44:15;;;;;;;10.48;4.95;;;27.40;86.30;;;;;;5124476;28;20039;-38
2022/03/13 03:46:43;;;;;;;11.07;4.80;;;27.40;86.20;;;;;;5125295;28;20054;-36
2022/03/13 03:49:10;;;;;;;16.35;4.70;;;27.40;85.90;;;;;;5124680;28;20020;-39
2022/03/13 03:51:38;;;;;;;7.53;4.50;;;27.40;86.10;;;;;;5124819;28;20304;-39
2022/03/13 03:54:05;;;;;;;18.15;4.72;;;27.40;85.90;;;;;;5124578;28;20046;-38
2022/03/13 03:56:33;;;;;;;11.95;4.35;;;27.40;85.80;;;;;;5124861;28;20265;-37
2022/03/13 03:59:00;;;;;;;12.25;4.10;;;27.40;86.20;;;;;;5124321;28;20069;-38
2022/03/13 04:01:28;;;;;;;12.35;4.25;;;27.30;86.00;;;;;;5124711;28;20023;-37
2022/03/13 04:03:55;;;;;;;7.85;4.07;;;27.40;86.00;;;;;;5124486;28;20015;-38
2022/03/13 04:06:21;;;;;;;7.65;4.05;;;27.30;86.00;;;;;;5124621;28;20090;-38
2022/03/13 04:08:49;;;;;;;12.57;4.20;;;27.30;85.60;;;;;;5124319;28;20027;-43
2022/03/13 04:11:15;;;;;;;8.15;3.85;;;27.30;85.80;;;;;;5124671;28;20026;-39
2022/03/13 04:13:42;;;;;;;9.20;4.30;;;27.30;85.60;;;;;;5124362;28;20092;-40
2022/03/13 04:16:09;;;;;;;11.73;4.07;;;27.30;85.80;;;;;;5124713;28;20038;-37
2022/03/13 04:18:37;;;;;;;13.65;4.72;;;27.30;86.00;;;;;;5124273;28;20024;-38
2022/03/13 04:21:05;;;;;;;7.60;4.28;;;27.30;85.80;;;;;;5124406;28;20290;-38
2022/03/13 04:23:37;;;;;;;12.77;4.50;;;27.30;85.70;;;;;;5124362;28;20066;-41
2022/03/13 04:26:04;;;;;;;9.98;4.43;;;27.30;85.80;;;;;;5124567;28;20063;-40
2022/03/13 04:28:33;;;;;;;8.52;4.40;;;27.30;85.70;;;;;;5124100;28;20020;-37
2022/03/13 04:31:00;;;;;;;10.73;4.30;;;27.30;85.90;;;;;;5124604;28;20184;-42
2022/03/13 04:33:28;;;;;;;9.80;4.22;;;27.30;85.80;;;;;;5124185;28;20088;-42
2022/03/13 04:36:00;;;;;;;11.13;4.95;;;27.30;86.00;;;;;;5124403;28;20042;-38
2022/03/13 04:38:28;;;;;;;9.30;4.40;;;27.30;85.90;;;;;;5124104;28;20031;-43
2022/03/13 04:40:58;;;;;;;8.93;4.30;;;27.30;85.70;;;;;;5123964;28;20031;-37
2022/03/13 04:43:24;;;;;;;6.93;4.13;;;27.30;85.70;;;;;;5124118;28;20321;-36
2022/03/13 04:45:51;;;;;;;10.15;4.00;;;27.30;85.90;;;;;;5124455;28;20086;-36
2022/03/13 04:48:18;;;;;;;12.80;4.20;;;27.30;85.70;;;;;;5123907;28;20314;-39
2022/03/13 04:50:46;;;;;;;10.55;4.50;;;27.20;85.50;;;;;;5124356;28;20036;-38
2022/03/13 04:53:13;;;;;;;9.45;4.30;;;27.30;85.50;;;;;;5124213;28;20090;-40
2022/03/13 04:55:40;;;;;;;9.05;4.30;;;27.30;85.60;;;;;;5124283;28;20303;-41
2022/03/13 04:58:08;;;;;;;11.13;4.43;;;27.30;85.40;;;;;;5124618;28;20094;-42
2022/03/13 05:00:37;;;;;;;10.68;4.30;;;27.20;85.40;;;;;;5124490;28;20295;-39
2022/03/13 05:03:08;;;;;;;7.10;3.90;;;27.30;85.50;;;;;;5124031;28;20227;-38
2022/03/13 05:05:36;;;;;;;8.68;3.80;;;27.20;85.30;;;;;;5124405;28;20039;-37
2022/03/13 05:08:15;;;;;;;8.55;4.28;;;27.20;85.40;;;;;;5124568;28;20028;-37
2022/03/13 05:10:43;;;;;;;10.27;4.10;;;27.20;85.40;;;;;;5124654;28;20019;-39
2022/03/13 05:13:13;;;;;;;7.80;4.07;;;27.20;85.40;;;;;;5124088;28;20024;-38
2022/03/13 05:15:39;;;;;;;11.30;4.10;;;27.20;85.10;;;;;;5126695;28;20020;-38
2022/03/13 05:18:07;;;;;;;8.23;4.10;;;27.20;84.70;;;;;;5127496;28;20061;-44
2022/03/13 05:20:35;;;;;;;10.07;4.20;;;27.20;84.90;;;;;;5127419;28;20358;-37
2022/03/13 05:23:07;;;;;;;7.13;3.80;;;27.20;85.20;;;;;;5126246;28;20024;-39
2022/03/13 05:25:35;;;;;;;8.02;3.80;;;27.20;85.20;;;;;;5127392;28;20035;-37
2022/03/13 05:28:03;;;;;;;7.60;3.92;;;27.20;85.20;;;;;;5127427;28;20047;-37
2022/03/13 05:30:30;;;;;;;8.85;3.90;;;27.20;85.10;;;;;;5127296;28;20215;-39
2022/03/13 05:32:57;;;;;;;8.65;3.65;;;27.20;85.30;;;;;;5127334;28;20019;-39
2022/03/13 05:35:24;;;;;;;6.78;3.90;;;27.20;85.00;;;;;;5127359;27;20027;-37
2022/03/13 05:37:51;;;;;;;8.43;3.72;;;27.10;85.20;;;;;;5127244;28;20040;-37
2022/03/13 05:40:20;;;;;;;6.80;4.10;;;27.20;85.40;;;;;;5126029;28;20019;-39
2022/03/13 05:42:55;;;;;;;8.13;4.30;;;27.10;85.10;;;;;;5126063;28;20033;-36
2022/03/13 05:45:25;;;;;;;6.93;4.40;;;27.20;85.20;;;;;;5127102;28;20027;-40
2022/03/13 05:47:57;;;;;;;8.75;4.38;;;27.20;85.30;;;;;;5126958;28;20031;-37
2022/03/13 05:50:26;;;;;;;10.45;4.35;;;27.20;85.30;;;;;;5126954;28;20019;-37
2022/03/13 05:52:55;;;;;;;6.70;4.15;;;27.20;85.30;;;;;;5127180;28;20076;-40
2022/03/13 05:55:26;;;;;;;9.27;4.78;;;27.20;85.40;;;;;;5126906;28;20012;-38
2022/03/13 05:57:58;;;;;;;9.45;4.78;;;27.20;85.30;;;;;;5126650;28;20027;-40
2022/03/13 06:00:25;;;;;;;7.50;3.80;;;27.20;85.40;;;;;;5126803;28;20055;-43
2022/03/13 06:02:53;;;;;;;10.02;4.25;;;27.20;85.40;;;;;;5126669;28;20335;-35
2022/03/13 06:05:21;;;;;;;6.97;4.30;;;27.20;85.40;;;;;;5127250;28;20119;-38
2022/03/13 06:07:48;;;;;;;8.02;4.35;;;27.10;85.30;;;;;;5126507;28;20092;-37
2022/03/13 06:10:16;;;;;;;8.13;4.00;;;27.20;85.50;;;;;;5126540;28;20310;-37
2022/03/13 06:12:43;;;;;;;6.50;3.95;;;27.10;85.30;;;;;;5126493;28;20220;-37
2022/03/13 06:15:16;;;;;;;10.52;4.50;;;27.20;85.30;;;;;;5126498;28;20032;-38
2022/03/13 06:17:45;;;;;;;6.00;4.22;;;27.20;85.40;;;;;;5126350;28;20031;-40
2022/03/13 06:20:13;;;;;;;7.35;3.80;;;27.20;85.20;;;;;;5126285;28;20213;-38
2022/03/13 06:22:42;;;;;;;8.20;3.88;;;27.20;85.50;;;;;;5126412;28;20069;-40
2022/03/13 06:25:10;;;;;;;9.23;4.40;;;27.20;85.40;;;;;;5126065;28;20031;-39
2022/03/13 06:27:38;;;;;;;10.15;4.00;;;27.20;85.40;;;;;;5126220;28;20023;-40
2022/03/13 06:30:16;;;;;;;6.18;4.03;;;27.20;85.40;;;;;;5126227;28;20072;-39
2022/03/13 06:32:51;;;;;;;7.97;3.97;;;27.20;85.30;;;;;;5126111;28;20032;-38
2022/03/13 06:35:21;;;;;;;8.30;3.85;;;27.10;85.40;;;;;;5126082;28;20231;-38
2022/03/13 06:37:49;;;;;;;7.90;3.78;;;27.10;85.40;;;;;;5125902;28;20031;-39
2022/03/13 06:40:19;;;;;;;12.60;3.78;;;27.10;85.10;;;;;;5125923;28;20024;-37
2022/03/13 06:42:51;;;;;;;9.82;4.10;;;27.10;85.40;;;;;;5126041;28;20090;-41
2022/03/13 06:45:18;;;;;;;8.70;3.75;;;27.10;85.30;;;;;;5125741;27;20030;-40
2022/03/13 06:47:52;;;;;;;8.15;4.20;;;27.10;85.40;;;;;;5125829;28;20311;-39
2022/03/13 06:50:25;;;;;;;5.88;3.67;;;27.10;85.50;;;;;;5125569;28;20202;-42
2022/03/13 06:52:53;;;;;;;8.38;4.03;;;27.10;85.40;;;;;;5125668;28;20311;-39
2022/03/13 06:55:22;;;;;;;10.18;4.07;;;27.10;85.70;;;;;;5125666;28;20032;-43
2022/03/13 06:57:50;;;;;;;11.38;3.85;;;27.10;85.80;;;;;;5125413;28;20080;-41
2022/03/13 07:00:17;;;;;;;9.75;3.83;;;27.10;85.30;;;;;;5125503;28;20030;-46
2022/03/13 07:02:43;;;;;;;9.25;4.20;;;27.10;85.40;;;;;;5125625;28;20253;-39
2022/03/13 07:05:10;;;;;;;10.48;3.80;;;27.10;85.40;;;;;;5125357;28;20192;-43
2022/03/13 07:07:36;;;;;;;10.65;4.43;;;27.10;85.30;;;;;;5125307;28;20027;-39
2022/03/13 07:10:06;;;;;;;11.00;3.58;;;27.10;85.40;;;;;;5125343;28;20085;-40
2022/03/13 07:12:32;;;;;;;8.05;3.42;;;27.10;85.20;;;;;;5125245;28;20023;-39
2022/03/13 07:14:59;;;;;;;8.10;4.00;;;27.10;85.30;;;;;;5125298;28;20096;-43
2022/03/13 07:17:26;;;;;;;9.27;3.70;;;27.10;85.40;;;;;;5125267;28;20243;-46
2022/03/13 07:19:52;;;;;;;8.73;3.67;;;27.10;85.20;;;;;;5124979;28;20043;-40
2022/03/13 07:22:19;;;;;;;9.32;3.80;;;27.10;85.30;;;;;;5125662;28;20046;-39
2022/03/13 07:24:48;;;;;;;9.65;3.65;;;27.10;85.30;;;;;;5125221;28;20034;-38
2022/03/13 07:27:15;;;;;;;8.38;3.70;;;27.10;85.30;;;;;;5125448;28;20027;-40
2022/03/13 07:29:42;;;;;;;12.38;3.95;;;27.00;85.40;;;;;;5125167;28;20038;-39
2022/03/13 07:32:09;;;;;;;8.80;3.92;;;27.10;85.40;;;;;;5125367;28;20024;-42
2022/03/13 07:34:35;;;;;;;9.40;3.72;;;27.10;85.30;;;;;;5124806;28;20047;-41
2022/03/13 07:37:02;;;;;;;8.02;3.88;;;27.00;85.30;;;;;;5124881;28;20038;-45
2022/03/13 07:39:29;;;;;;;15.18;3.97;;;27.00;85.30;;;;;;5124919;28;20054;-43
2022/03/13 07:41:56;;;;;;;10.60;3.55;;;27.00;85.20;;;;;;5125120;28;20043;-38
2022/03/13 07:44:22;;;;;;;9.43;3.60;;;27.00;85.00;;;;;;5124756;28;20019;-37
2022/03/13 07:46:49;;;;;;;16.27;4.10;;;27.00;85.10;;;;;;5125129;28;20035;-38
2022/03/13 07:49:16;;;;;;;19.30;4.72;;;26.90;85.30;;;;;;5124668;28;20041;-42
2022/03/13 07:51:43;;;;;;;13.93;3.88;;;26.90;85.50;;;;;;5125125;28;20092;-38
2022/03/13 07:54:11;;;;;;;11.13;3.78;;;26.90;85.70;;;;;;5124488;28;20025;-42
2022/03/13 07:56:37;;;;;;;11.57;3.72;;;26.90;85.70;;;;;;5124403;28;20023;-41
2022/03/13 07:59:04;;;;;;;9.88;3.78;;;26.80;85.70;;;;;;5124542;28;20038;-39
2022/03/13 08:01:30;;;;;;;11.35;3.78;;;26.80;85.90;;;;;;5124859;28;20024;-42
2022/03/13 08:04:04;;;;;;;10.10;3.67;;;26.80;85.80;;;;;;5124575;28;20024;-42
2022/03/13 08:06:35;;;;;;;9.68;3.38;;;26.80;86.00;;;;;;5124647;28;20320;-39
2022/03/13 08:09:06;;;;;;;10.68;4.22;;;26.80;85.90;;;;;;5124395;28;20075;-35
2022/03/13 08:11:38;;;;;;;12.32;3.50;;;26.80;86.20;;;;;;5124649;28;20099;-37
2022/03/13 08:14:08;;;;;;;11.02;3.85;;;26.80;86.20;;;;;;5124402;28;20308;-38
2022/03/13 08:16:35;;;;;;;13.45;3.92;;;26.70;86.30;;;;;;5124612;28;20032;-41
2022/03/13 08:19:03;;;;;;;16.45;4.18;;;26.70;86.10;;;;;;5124238;28;20051;-43
2022/03/13 08:21:30;;;;;;;8.30;4.15;;;26.70;86.20;;;;;;5124608;28;20028;-41
2022/03/13 08:23:57;;;;;;;6.88;3.60;;;26.70;86.10;;;;;;5124353;28;20027;-38
2022/03/13 08:26:23;;;;;;;7.85;3.90;;;26.70;86.20;;;;;;5124464;28;20027;-39
2022/03/13 08:28:50;;;;;;;8.05;3.65;;;26.70;85.90;;;;;;5124317;28;20050;-35
2022/03/13 08:31:17;;;;;;;7.20;3.83;;;26.70;85.80;;;;;;5124435;28;20024;-38
2022/03/13 08:33:45;;;;;;;7.63;4.05;;;26.70;85.90;;;;;;5124704;28;20015;-37
2022/03/13 08:36:13;;;;;;;5.85;3.60;;;26.70;86.00;;;;;;5124424;28;20228;-37
2022/03/13 08:38:39;;;;;;;8.73;4.13;;;26.60;86.00;;;;;;5124322;28;20046;-36
2022/03/13 08:41:06;;;;;;;6.25;3.47;;;26.70;85.90;;;;;;5124364;28;20027;-40
2022/03/13 08:43:32;;;;;;;8.98;3.63;;;26.70;86.30;;;;;;5124494;28;20025;-36
2022/03/13 08:46:00;;;;;;;13.20;4.15;;;26.70;85.70;;;;;;5124308;28;20035;-36
2022/03/13 08:48:28;;;;;;;7.75;3.72;;;26.60;85.50;;;;;;5123910;28;20311;-36
2022/03/13 08:50:55;;;;;;;9.15;3.70;;;26.70;85.60;;;;;;5127682;28;20198;-38
2022/03/13 08:53:22;;;;;;;10.45;3.78;;;26.70;85.60;;;;;;5128037;28;20094;-39
2022/03/13 08:55:49;;;;;;;8.65;3.60;;;26.70;85.60;;;;;;5128368;28;20069;-37
2022/03/13 08:58:15;;;;;;;6.07;3.50;;;26.70;85.60;;;;;;5128107;28;20075;-38
2022/03/13 09:00:43;;;;;;;9.00;3.60;;;26.70;85.50;;;;;;5128085;28;20071;-37
2022/03/13 09:03:09;;;;;;;11.30;3.90;;;26.70;85.40;;;;;;5127670;28;20368;-39
2022/03/13 09:05:36;;;;;;;9.82;3.83;;;26.70;85.50;;;;;;5128109;27;20068;-36
2022/03/13 09:08:03;;;;;;;13.65;3.83;;;26.70;85.40;;;;;;5127591;28;20031;-36
2022/03/13 09:10:30;;;;;;;8.57;3.60;;;26.70;85.50;;;;;;5127604;28;20090;-36
2022/03/13 09:12:57;;;;;;;9.75;4.20;;;26.70;85.50;;;;;;5127795;28;20311;-39
2022/03/13 09:15:23;;;;;;;8.57;3.55;;;26.70;85.60;;;;;;5127592;28;20027;-39
2022/03/13 09:17:53;;;;;;;9.63;3.70;;;26.70;85.50;;;;;;5127707;27;20282;-36
2022/03/13 09:20:21;;;;;;;14.70;4.43;;;26.70;85.60;;;;;;5127327;28;20067;-37
2022/03/13 09:22:48;;;;;;;12.50;3.90;;;26.60;85.70;;;;;;5127566;28;20027;-36
2022/03/13 09:25:15;;;;;;;7.93;4.03;;;26.60;85.80;;;;;;5127345;28;20317;-37
2022/03/13 09:27:42;;;;;;;11.75;4.00;;;26.60;85.80;;;;;;5127660;28;20080;-36
2022/03/13 09:30:09;;;;;;;7.95;4.35;;;26.60;85.70;;;;;;5127263;28;20030;-36
2022/03/13 09:32:36;;;;;;;12.32;4.00;;;26.70;85.90;;;;;;5127140;27;20027;-37
2022/03/13 09:35:02;;;;;;;9.68;4.00;;;26.60;85.70;;;;;;5127164;28;20016;-39
2022/03/13 09:37:29;;;;;;;9.10;4.18;;;26.60;85.70;;;;;;5127160;28;20088;-36
2022/03/13 09:39:55;;;;;;;8.60;4.05;;;26.60;85.70;;;;;;5127064;28;20019;-38
2022/03/13 09:42:22;;;;;;;9.10;4.22;;;26.60;85.70;;;;;;5127024;28;20420;-37
2022/03/13 09:44:48;;;;;;;7.88;3.65;;;26.60;85.70;;;;;;5127006;28;20103;-39
2022/03/13 09:47:15;;;;;;;9.45;4.05;;;26.60;85.80;;;;;;5127254;28;20042;-36
2022/03/13 09:49:43;;;;;;;9.85;4.00;;;26.60;85.70;;;;;;5126987;28;20074;-42
2022/03/13 09:52:10;;;;;;;9.57;3.97;;;26.60;85.70;;;;;;5127317;28;20024;-39
2022/03/13 09:54:37;;;;;;;9.40;4.00;;;26.60;85.80;;;;;;5126748;28;20015;-39
2022/03/13 09:57:05;;;;;;;14.00;4.28;;;26.60;85.80;;;;;;5127334;28;20027;-38
2022/03/13 09:59:32;;;;;;;10.55;3.85;;;26.60;85.80;;;;;;5126721;28;20028;-39
2022/03/13 10:01:58;;;;;;;9.32;4.20;;;26.60;85.70;;;;;;5126669;28;20020;-36
2022/03/13 10:04:25;;;;;;;9.60;4.10;;;26.60;85.70;;;;;;5126639;28;20099;-39
2022/03/13 10:07:11;;;;;;;9.50;4.07;;;26.60;85.50;;;;;;5126934;28;20057;-41
2022/03/13 10:09:40;;;;;;;9.13;4.18;;;26.60;85.50;;;;;;5126557;28;20252;-35
2022/03/13 10:12:17;;;;;;;7.78;3.90;;;26.60;85.50;;;;;;5126921;28;20039;-43
2022/03/13 10:15:01;;;;;;;12.32;4.38;;;26.60;85.60;;;;;;5126315;28;20211;-40
2022/03/13 10:17:29;;;;;;;8.98;4.15;;;26.60;85.50;;;;;;5126668;28;20211;-40
2022/03/13 10:20:20;;;;;;;7.70;4.28;;;26.60;85.70;;;;;;5126083;28;20055;-40
2022/03/13 10:22:49;;;;;;;8.77;4.28;;;26.60;85.60;;;;;;5126466;28;20027;-41
2022/03/13 10:25:35;;;;;;;9.70;4.60;;;26.60;85.60;;;;;;5125973;28;20069;-40
2022/03/13 10:28:26;;;;;;;12.68;4.28;;;26.60;85.60;;;;;;5126177;28;20133;-42
2022/03/13 10:30:59;;;;;;;12.40;4.13;;;26.60;85.70;;;;;;5126337;28;20036;-36
2022/03/13 10:33:44;;;;;;;17.23;4.35;;;26.60;85.60;;;;;;5126059;28;20024;-40
2022/03/13 10:36:17;;;;;;;7.10;3.72;;;26.60;85.70;;;;;;5126276;28;20085;-39
2022/03/13 10:38:45;;;;;;;9.45;3.85;;;26.60;85.80;;;;;;5125800;28;20211;-42
2022/03/13 10:41:13;;;;;;;10.60;3.90;;;26.60;86.00;;;;;;5126048;28;20035;-38
2022/03/13 10:43:46;;;;;;;10.18;3.90;;;26.60;86.10;;;;;;5125839;28;20023;-38
2022/03/13 10:46:40;;;;;;;8.73;3.70;;;26.60;86.00;;;;;;5125884;28;20093;-39
2022/03/13 10:49:09;;;;;;;15.25;4.18;;;26.60;85.90;;;;;;5122828;28;20059;-43
2022/03/13 10:51:48;;;;;;;14.38;4.35;;;26.60;86.00;;;;;;5125970;28;20226;-39
2022/03/13 10:54:32;;;;;;;9.45;3.75;;;26.60;86.10;;;;;;5125680;28;20078;-38
2022/03/13 10:57:10;;;;;;;13.20;4.47;;;26.50;86.00;;;;;;5125926;28;20038;-37
2022/03/13 10:59:40;;;;;;;9.93;4.50;;;26.60;86.00;;;;;;5125626;28;20023;-40
2022/03/13 11:02:14;;;;;;;10.95;5.18;;;26.60;85.90;;;;;;5125823;28;20094;-37
2022/03/13 11:04:50;;;;;;;16.77;5.05;;;26.60;85.90;;;;;;5125451;28;20319;-43
2022/03/13 11:07:19;;;;;;;11.25;5.10;;;26.50;86.00;;;;;;5125507;28;20060;-38
2022/03/13 11:09:46;;;;;;;12.13;4.95;;;26.60;85.50;;;;;;5125551;28;20244;-39
2022/03/13 11:12:20;;;;;;;14.60;4.60;;;26.60;85.60;;;;;;5125100;28;20028;-41
2022/03/13 11:14:49;;;;;;;11.23;4.20;;;26.60;85.30;;;;;;5125517;28;20119;-39
2022/03/13 11:17:20;;;;;;;11.57;5.07;;;26.60;85.50;;;;;;5125769;28;20035;-43
2022/03/13 11:19:53;;;;;;;14.13;5.72;;;26.60;85.80;;;;;;5124884;28;20084;-38
2022/03/13 11:22:20;;;;;;;14.82;5.45;;;26.60;85.60;;;;;;5125647;28;20039;-38
2022/03/13 11:24:49;;;;;;;16.60;4.75;;;26.60;85.70;;;;;;5125123;28;20256;-41
2022/03/13 11:27:16;;;;;;;11.40;4.72;;;26.60;85.70;;;;;;5125398;28;20299;-38
2022/03/13 11:29:53;;;;;;;10.95;4.38;;;26.60;85.70;;;;;;5125039;28;20028;-46
2022/03/13 11:32:32;;;;;;;10.10;3.97;;;26.60;85.80;;;;;;5125436;28;20028;-39
2022/03/13 11:35:14;;;;;;;8.50;4.00;;;26.60;85.90;;;;;;5125128;28;20031;-40
2022/03/13 11:37:51;;;;;;;14.40;4.53;;;26.60;85.90;;;;;;5124785;28;20032;-41
2022/03/13 11:40:32;;;;;;;11.57;4.50;;;26.60;86.00;;;;;;5124809;28;20035;-42
2022/03/13 11:43:14;;;;;;;14.35;4.95;;;26.60;86.20;;;;;;5124764;28;20028;-40
2022/03/13 11:45:55;;;;;;;12.13;4.47;;;26.60;86.20;;;;;;5124876;28;20042;-37
2022/03/13 11:48:22;;;;;;;14.88;4.30;;;26.60;86.20;;;;;;5124649;28;20304;-49
2022/03/13 11:50:55;;;;;;;11.15;4.28;;;26.60;86.10;;;;;;5124784;28;20031;-38
2022/03/13 11:53:28;;;;;;;14.45;4.45;;;26.60;86.40;;;;;;5124740;28;20211;-44
2022/03/13 11:56:02;;;;;;;10.48;4.75;;;26.60;86.80;;;;;;5124824;28;20035;-48
2022/03/13 11:58:42;;;;;;;14.60;4.68;;;26.60;87.10;;;;;;5124589;28;20051;-41
2022/03/13 12:01:11;;;;;;;17.05;4.68;;;26.60;87.30;;;;;;5125399;28;20043;-38
2022/03/13 12:03:39;;;;;;;10.00;4.63;;;26.60;87.50;;;;;;5124629;28;20020;-38
2022/03/13 12:06:06;;;;;;;18.20;5.07;;;26.60;87.60;;;;;;5124535;28;20031;-45
2022/03/13 12:09:07;;;;;;;13.20;4.40;;;26.60;87.70;;;;;;5124705;28;20023;-41
2022/03/13 12:11:40;;;;;;;9.30;4.85;;;26.60;87.80;;;;;;5124291;28;20095;-44
2022/03/13 12:14:12;;;;;;;15.57;4.78;;;26.60;88.30;;;;;;5124366;28;20065;-40
2022/03/13 12:16:40;;;;;;;17.17;4.75;;;26.60;87.80;;;;;;5124870;28;20031;-41
2022/03/13 12:19:08;;;;;;;12.32;4.35;;;26.60;87.70;;;;;;5124489;28;20058;-45
2022/03/13 12:21:35;;;;;;;14.20;4.85;;;26.70;87.70;;;;;;5124711;28;20039;-39
2022/03/13 12:24:17;;;;;;;14.15;4.75;;;26.70;87.70;;;;;;5126020;28;20016;-38
2022/03/13 12:26:45;;;;;;;11.35;5.20;;;26.70;87.70;;;;;;5128974;28;20023;-38
2022/03/13 12:29:18;;;;;;;14.27;5.47;;;26.80;87.80;;;;;;5128585;28;20024;-44
2022/03/13 12:31:49;;;;;;;20.63;5.53;;;26.70;87.60;;;;;;5128856;28;20034;-43
2022/03/13 12:34:26;;;;;;;15.93;4.85;;;26.80;87.60;;;;;;5128442;28;20071;-45
2022/03/13 12:36:53;;;;;;;13.90;4.80;;;26.70;87.50;;;;;;5128677;28;20036;-36
2022/03/13 12:39:22;;;;;;;10.02;4.65;;;26.70;87.40;;;;;;5128325;28;20012;-38
2022/03/13 12:42:04;;;;;;;12.50;4.68;;;26.80;87.40;;;;;;5128653;28;20028;-39
2022/03/13 12:44:32;;;;;;;17.77;5.00;;;26.80;87.50;;;;;;5128492;28;20303;-41
2022/03/13 12:46:59;;;;;;;10.60;5.15;;;26.70;87.70;;;;;;5128531;28;20074;-46
2022/03/13 12:49:28;;;;;;;9.20;4.63;;;26.80;87.60;;;;;;5127971;28;20238;-42
2022/03/13 12:51:55;;;;;;;14.45;4.72;;;26.80;87.30;;;;;;5128592;28;20030;-40